createdAt,value
2018-03-30T00:00:43.008Z,25.77
2018-03-30T00:03:11.343Z,25.58
2018-03-30T00:05:38.942Z,27.52
2018-03-30T00:08:07.330Z,24.90
2018-03-30T00:10:40.444Z,25.33
2018-03-30T00:13:08.035Z,29.67
2018-03-30T00:15:35.628Z,29.40
2018-03-30T00:18:03.219Z,24.65
2018-03-30T00:20:30.811Z,26.98
2018-03-30T00:22:58.405Z,22.45
2018-03-30T00:25:26.037Z,22.50
2018-03-30T00:27:53.630Z,25.48
2018-03-30T00:30:21.220Z,30.02
2018-03-30T00:32:48.844Z,30.00
2018-03-30T00:35:16.435Z,23.62
2018-03-30T00:37:44.079Z,27.08
2018-03-30T00:40:11.671Z,32.63
2018-03-30T00:42:39.283Z,34.80
2018-03-30T00:45:06.919Z,32.28
2018-03-30T00:47:34.516Z,25.12
2018-03-30T00:50:02.119Z,23.73
2018-03-30T00:52:29.708Z,25.62
2018-03-30T00:54:57.303Z,25.33
2018-03-30T00:57:24.895Z,25.83
2018-03-30T00:59:52.500Z,23.85
2018-03-30T01:02:20.860Z,23.75
2018-03-30T01:04:48.455Z,30.73
2018-03-30T01:07:16.811Z,22.67
2018-03-30T01:09:44.412Z,24.70
2018-03-30T01:12:12.772Z,34.40
2018-03-30T01:14:40.403Z,30.05
2018-03-30T01:17:07.992Z,25.58
2018-03-30T01:19:35.580Z,26.62
2018-03-30T01:22:03.975Z,24.70
2018-03-30T01:24:31.564Z,27.95
2018-03-30T01:26:59.163Z,24.92
2018-03-30T01:29:26.749Z,19.77
2018-03-30T01:31:54.340Z,31.55
2018-03-30T01:34:21.935Z,31.23
2018-03-30T01:36:49.531Z,25.23
2018-03-30T01:39:17.138Z,26.75
2018-03-30T01:41:44.732Z,24.87
2018-03-30T01:44:12.313Z,24.40
2018-03-30T01:46:39.902Z,22.37
2018-03-30T01:49:07.534Z,24.90
2018-03-30T01:51:35.123Z,25.62
2018-03-30T01:54:02.706Z,25.83
2018-03-30T01:56:30.299Z,22.95
2018-03-30T01:58:57.892Z,26.55
2018-03-30T02:01:25.516Z,24.12
2018-03-30T02:03:53.116Z,24.10
2018-03-30T02:06:21.471Z,20.95
2018-03-30T02:08:49.087Z,23.30
2018-03-30T02:11:16.675Z,24.70
2018-03-30T02:13:44.271Z,28.00
2018-03-30T02:16:11.863Z,21.33
2018-03-30T02:18:39.452Z,18.83
2018-03-30T02:21:07.067Z,21.48
2018-03-30T02:23:34.655Z,22.48
2018-03-30T02:26:02.246Z,21.40
2018-03-30T02:28:30.143Z,17.30
2018-03-30T02:30:58.501Z,21.48
2018-03-30T02:33:26.095Z,21.30
2018-03-30T02:35:54.469Z,18.65
2018-03-30T02:38:22.077Z,16.83
2018-03-30T02:40:49.672Z,18.05
2018-03-30T02:43:17.263Z,23.95
2018-03-30T02:45:44.928Z,23.17
2018-03-30T02:48:13.308Z,20.85
2018-03-30T02:50:41.711Z,23.73
2018-03-30T02:53:09.304Z,26.30
2018-03-30T02:55:36.899Z,22.95
2018-03-30T02:58:04.503Z,22.13
2018-03-30T03:00:32.108Z,24.12
2018-03-30T03:02:59.705Z,31.15
2018-03-30T03:05:27.385Z,24.42
2018-03-30T03:07:54.975Z,21.25
2018-03-30T03:10:22.575Z,21.90
2018-03-30T03:12:50.163Z,26.92
2018-03-30T03:15:17.760Z,24.48
2018-03-30T03:17:45.352Z,18.37
2018-03-30T03:20:12.942Z,20.23
2018-03-30T03:22:40.534Z,23.60
2018-03-30T03:25:08.143Z,21.02
2018-03-30T03:27:35.763Z,26.08
2018-03-30T03:30:03.400Z,19.77
2018-03-30T03:32:30.994Z,21.20
2018-03-30T03:34:58.619Z,18.98
2018-03-30T03:37:26.207Z,21.73
2018-03-30T03:39:53.798Z,23.35
2018-03-30T03:42:22.195Z,21.30
2018-03-30T03:44:49.797Z,22.37
2018-03-30T03:47:17.383Z,17.02
2018-03-30T03:49:44.972Z,20.65
2018-03-30T03:52:13.323Z,15.85
2018-03-30T03:54:40.914Z,16.73
2018-03-30T03:57:08.513Z,19.73
2018-03-30T03:59:36.146Z,17.80
2018-03-30T04:02:03.746Z,21.23
2018-03-30T04:04:31.375Z,21.52
2018-03-30T04:06:58.975Z,19.20
2018-03-30T04:09:26.578Z,21.23
2018-03-30T04:11:54.166Z,17.08
2018-03-30T04:14:21.770Z,19.70
2018-03-30T04:16:49.358Z,20.80
2018-03-30T04:19:16.951Z,21.08
2018-03-30T04:21:44.532Z,23.80
2018-03-30T04:24:12.910Z,21.17
2018-03-30T04:26:40.514Z,18.12
2018-03-30T04:29:08.147Z,17.50
2018-03-30T04:31:36.494Z,22.15
2018-03-30T04:34:04.123Z,19.95
2018-03-30T04:36:31.712Z,20.83
2018-03-30T04:38:59.293Z,20.90
2018-03-30T04:41:27.532Z,19.08
2018-03-30T04:43:55.126Z,16.52
2018-03-30T04:46:22.731Z,19.00
2018-03-30T04:48:50.334Z,19.45
2018-03-30T04:51:17.982Z,18.00
2018-03-30T04:53:45.572Z,19.60
2018-03-30T04:56:13.183Z,20.80
2018-03-30T04:58:40.798Z,23.17
2018-03-30T05:01:08.382Z,19.35
2018-03-30T05:03:35.970Z,20.65
2018-03-30T05:06:03.563Z,32.10
2018-03-30T05:08:31.151Z,24.52
2018-03-30T05:10:58.738Z,31.60
2018-03-30T05:13:26.323Z,32.05
2018-03-30T05:15:53.920Z,37.63
2018-03-30T05:18:22.285Z,38.42
2018-03-30T05:20:49.899Z,35.42
2018-03-30T05:23:17.490Z,34.00
2018-03-30T05:25:45.087Z,31.92
2018-03-30T05:28:12.683Z,27.90
2018-03-30T05:30:40.287Z,25.67
2018-03-30T05:33:07.880Z,28.58
2018-03-30T05:35:35.479Z,21.83
2018-03-30T05:38:03.071Z,21.05
2018-03-30T05:40:30.679Z,22.87
2018-03-30T05:42:58.275Z,24.25
2018-03-30T05:45:25.863Z,26.80
2018-03-30T05:47:53.450Z,36.97
2018-03-30T05:50:21.044Z,25.45
2018-03-30T05:52:48.640Z,28.08
2018-03-30T05:55:16.239Z,33.80
2018-03-30T05:57:43.831Z,39.38
2018-03-30T06:00:12.211Z,42.47
2018-03-30T06:02:39.803Z,33.92
2018-03-30T06:05:07.399Z,35.50
2018-03-30T06:07:34.995Z,35.88
2018-03-30T06:10:03.408Z,36.35
2018-03-30T06:12:30.995Z,29.35
2018-03-30T06:14:58.608Z,29.90
2018-03-30T06:17:36.927Z,32.92
2018-03-30T06:20:04.606Z,45.40
2018-03-30T06:22:32.191Z,53.00
2018-03-30T06:24:59.791Z,56.17
2018-03-30T06:27:27.383Z,44.35
2018-03-30T06:29:54.970Z,39.42
2018-03-30T06:32:23.329Z,30.42
2018-03-30T06:34:51.747Z,23.42
2018-03-30T06:37:19.353Z,26.58
2018-03-30T06:39:46.958Z,31.08
2018-03-30T06:42:15.311Z,33.90
2018-03-30T06:44:42.903Z,27.90
2018-03-30T06:47:11.259Z,33.47
2018-03-30T06:49:38.846Z,24.80
2018-03-30T06:52:06.434Z,24.40
2018-03-30T06:54:34.050Z,30.80
2018-03-30T06:57:01.639Z,34.13
2018-03-30T06:59:29.226Z,26.37
2018-03-30T07:01:56.824Z,23.50
2018-03-30T07:04:24.416Z,33.33
2018-03-30T07:06:51.999Z,23.65
2018-03-30T07:09:19.596Z,24.23
2018-03-30T07:11:47.182Z,22.37
2018-03-30T07:14:14.771Z,26.35
2018-03-30T07:16:42.358Z,23.60
2018-03-30T07:19:09.951Z,25.95
2018-03-30T07:21:37.545Z,19.65
2018-03-30T07:24:05.143Z,20.60
2018-03-30T07:26:32.731Z,24.70
2018-03-30T07:29:01.084Z,20.37
2018-03-30T07:31:29.419Z,21.67
2018-03-30T07:33:57.011Z,29.05
2018-03-30T07:36:24.631Z,21.83
2018-03-30T07:38:52.984Z,22.50
2018-03-30T07:41:20.575Z,19.83
2018-03-30T07:43:48.165Z,19.62
2018-03-30T07:46:15.768Z,19.30
2018-03-30T07:51:10.512Z,18.73
2018-03-30T07:53:38.866Z,23.65
2018-03-30T07:56:06.487Z,20.85
2018-03-30T07:58:34.073Z,16.37
2018-03-30T08:01:01.655Z,17.90
2018-03-30T08:03:29.248Z,20.25
2018-03-30T08:05:56.919Z,17.33
2018-03-30T08:08:24.506Z,18.75
2018-03-30T08:10:52.876Z,20.65
2018-03-30T08:13:21.226Z,23.95
2018-03-30T08:15:48.867Z,31.80
2018-03-30T08:18:16.430Z,19.45
2018-03-30T08:20:44.014Z,20.10
2018-03-30T08:23:11.603Z,24.20
2018-03-30T08:25:39.233Z,24.45
2018-03-30T08:28:06.826Z,18.10
2018-03-30T08:30:34.410Z,19.87
2018-03-30T08:33:02.802Z,20.30
2018-03-30T08:35:31.150Z,14.60
2018-03-30T08:37:58.736Z,17.33
2018-03-30T08:40:27.095Z,16.60
2018-03-30T08:42:54.680Z,15.52
2018-03-30T08:45:22.263Z,17.23
2018-03-30T08:47:50.621Z,16.50
2018-03-30T08:50:18.206Z,19.15
2018-03-30T08:52:46.556Z,14.15
2018-03-30T08:55:14.135Z,24.30
2018-03-30T08:57:41.716Z,12.00
2018-03-30T09:00:10.068Z,13.48
2018-03-30T09:02:37.650Z,12.30
2018-03-30T09:05:06.003Z,8.95
2018-03-30T09:07:33.600Z,13.07
2018-03-30T09:10:01.234Z,5.12
2018-03-30T09:12:28.822Z,5.62
2018-03-30T09:14:56.407Z,5.18
2018-03-30T09:17:24.784Z,4.93
2018-03-30T09:19:53.131Z,5.30
2018-03-30T09:22:20.707Z,6.68
2018-03-30T09:24:48.291Z,8.55
2018-03-30T09:27:16.675Z,9.48
2018-03-30T09:29:50.631Z,11.15
2018-03-30T09:32:18.220Z,10.73
2018-03-30T09:34:45.803Z,11.12
2018-03-30T09:37:13.386Z,6.75
2018-03-30T09:39:41.743Z,12.40
2018-03-30T09:42:09.402Z,8.88
2018-03-30T09:44:36.990Z,9.50
2018-03-30T09:47:05.339Z,7.87
2018-03-30T09:49:32.932Z,10.10
2018-03-30T09:52:00.525Z,12.18
2018-03-30T09:54:28.124Z,11.77
2018-03-30T09:56:55.766Z,12.10
2018-03-30T09:59:23.356Z,11.00
2018-03-30T10:01:51.693Z,14.87
2018-03-30T10:04:23.860Z,9.90
2018-03-30T10:06:52.216Z,10.50
2018-03-30T10:09:20.686Z,13.30
2018-03-30T10:11:48.340Z,13.25
2018-03-30T10:14:15.915Z,12.20
2018-03-30T10:16:43.507Z,11.45
2018-03-30T10:19:11.098Z,12.15
2018-03-30T10:21:38.947Z,11.93
2018-03-30T10:24:07.303Z,10.43
2018-03-30T10:26:34.954Z,12.95
2018-03-30T10:29:03.553Z,9.60
2018-03-30T10:31:32.899Z,10.77
2018-03-30T10:34:01.965Z,13.18
2018-03-30T10:36:29.571Z,12.98
2018-03-30T10:38:57.162Z,14.85
2018-03-30T10:41:24.750Z,16.43
2018-03-30T10:43:52.334Z,14.63
2018-03-30T10:48:47.089Z,13.30
2018-03-30T10:51:14.739Z,14.45
2018-03-30T10:53:42.343Z,13.35
2018-03-30T10:56:09.939Z,13.57
2018-03-30T10:58:37.523Z,12.30
2018-03-30T11:01:05.111Z,13.52
2018-03-30T11:03:32.716Z,13.40
2018-03-30T11:06:00.307Z,15.40
2018-03-30T11:08:27.937Z,16.15
2018-03-30T11:10:55.526Z,10.70
2018-03-30T11:20:44.559Z,14.40
2018-03-30T11:25:39.307Z,12.05
2018-03-30T11:28:07.666Z,18.05
2018-03-30T11:30:35.250Z,15.10
2018-03-30T11:33:03.611Z,13.40
2018-03-30T11:35:31.206Z,13.67
2018-03-30T11:42:53.849Z,13.10
2018-03-30T11:45:21.446Z,16.00
2018-03-30T11:47:49.043Z,18.30
2018-03-30T11:50:16.635Z,14.18
2018-03-30T11:52:44.229Z,17.02
2018-03-30T11:55:11.820Z,15.73
2018-03-30T11:57:40.175Z,14.90
2018-03-30T12:00:07.775Z,15.20
2018-03-30T12:19:47.639Z,16.90
2018-03-30T12:32:03.786Z,13.40
2018-03-30T12:34:31.374Z,15.30
2018-03-30T12:44:20.419Z,16.00
2018-03-30T12:49:15.146Z,14.35
2018-03-30T12:51:42.738Z,14.50
2018-03-30T12:54:10.318Z,12.65
2018-03-30T12:59:05.049Z,12.30
2018-03-30T13:06:26.920Z,12.98
2018-03-30T13:08:54.516Z,13.80
2018-03-30T13:11:22.107Z,12.20
2018-03-30T13:13:50.458Z,13.75
2018-03-30T13:16:18.045Z,11.45
2018-03-30T13:18:45.635Z,13.82
2018-03-30T13:21:13.254Z,9.60
2018-03-30T13:23:40.910Z,11.45
2018-03-30T13:26:08.563Z,13.30
2018-03-30T13:28:36.146Z,12.10
2018-03-30T13:31:03.745Z,12.40
2018-03-30T13:33:33.562Z,19.65
2018-03-30T13:36:01.925Z,159.57
2018-03-30T13:50:52.782Z,12.90
2018-03-30T14:05:58.394Z,9.67
2018-03-30T14:08:26.982Z,12.65
2018-03-30T14:10:57.396Z,11.32
2018-03-30T14:13:25.035Z,9.70
2018-03-30T14:16:02.572Z,8.77
2018-03-30T14:18:34.622Z,10.68
2018-03-30T14:21:09.824Z,7.05
2018-03-30T14:23:38.956Z,9.15
2018-03-30T14:26:13.742Z,10.93
2018-03-30T14:28:42.236Z,7.47
2018-03-30T14:34:16.631Z,9.00
2018-03-30T16:29:12.170Z,9.93
2018-03-30T16:31:39.324Z,7.35
2018-03-30T16:34:06.429Z,13.70
2018-03-30T16:36:33.522Z,11.30
2018-03-30T16:39:00.619Z,8.40
2018-03-30T16:41:27.740Z,10.90
2018-03-30T16:43:54.877Z,9.27
2018-03-30T16:48:48.897Z,9.83
2018-03-30T16:51:16.000Z,6.65
2018-03-30T16:53:43.875Z,8.32
2018-03-30T16:56:11.743Z,11.40
2018-03-30T16:58:39.602Z,15.40
2018-03-30T17:01:06.707Z,18.00
2018-03-30T17:03:33.807Z,18.50
2018-03-30T17:06:00.912Z,20.67
2018-03-30T17:08:28.028Z,19.73
2018-03-30T17:10:55.130Z,22.08
2018-03-30T17:13:22.285Z,23.95
2018-03-30T17:15:49.396Z,26.27
2018-03-30T17:18:17.267Z,22.83
2018-03-30T17:20:45.179Z,26.58
2018-03-30T17:23:12.285Z,22.80
2018-03-30T17:25:39.427Z,22.60
2018-03-30T17:28:06.566Z,24.63
2018-03-30T17:30:33.666Z,22.33
2018-03-30T17:33:01.559Z,27.55
2018-03-30T17:35:28.698Z,29.85
2018-03-30T17:37:55.822Z,31.02
2018-03-30T17:40:22.977Z,26.58
2018-03-30T17:42:50.049Z,33.42
2018-03-30T17:45:17.907Z,31.05
2018-03-30T17:47:45.009Z,36.17
2018-03-30T17:50:12.108Z,28.25
2018-03-30T17:52:39.219Z,28.65
2018-03-30T17:55:06.319Z,32.28
2018-03-30T17:57:33.430Z,38.28
2018-03-30T18:00:00.532Z,31.17
2018-03-30T18:02:28.403Z,31.12
2018-03-30T18:04:55.500Z,26.52
2018-03-30T18:07:22.612Z,31.37
2018-03-30T18:09:50.478Z,30.08
2018-03-30T18:12:17.629Z,27.10
2018-03-30T18:14:44.732Z,30.20
2018-03-30T18:17:11.879Z,33.30
2018-03-30T18:19:39.001Z,31.55
2018-03-30T18:22:06.129Z,28.33
2018-03-30T18:24:33.232Z,30.50
2018-03-30T18:27:00.372Z,34.70
2018-03-30T18:29:28.241Z,33.10
2018-03-30T18:31:56.107Z,33.35
2018-03-30T18:34:23.979Z,34.95
2018-03-30T18:36:51.851Z,40.20
2018-03-30T18:39:19.795Z,42.58
2018-03-30T18:41:46.900Z,38.83
2018-03-30T18:44:14.092Z,36.85
2018-03-30T18:46:41.395Z,38.63
2018-03-30T18:49:10.331Z,36.72
2018-03-30T18:51:37.435Z,35.42
2018-03-30T18:54:04.538Z,40.80
2018-03-30T18:56:31.649Z,42.47
2018-03-30T18:58:59.528Z,42.85
2018-03-30T19:01:27.822Z,44.30
2018-03-30T19:03:54.906Z,42.62
2018-03-30T19:06:22.013Z,62.50
2018-03-30T19:08:49.108Z,55.55
2018-03-30T19:11:16.264Z,54.10
2018-03-30T19:13:43.362Z,54.08
2018-03-30T19:16:10.459Z,51.55
2018-03-30T19:18:37.564Z,49.60
2018-03-30T19:21:05.461Z,53.60
2018-03-30T19:23:33.331Z,57.38
2018-03-30T19:26:01.199Z,56.00
2018-03-30T19:28:29.063Z,67.75
2018-03-30T19:30:56.216Z,58.40
2018-03-30T19:33:24.078Z,52.58
2018-03-30T19:35:52.160Z,49.92
2018-03-30T19:38:20.027Z,55.38
2018-03-30T19:40:47.132Z,61.53
2018-03-30T19:43:18.080Z,69.65
2018-03-30T19:45:45.179Z,66.68
2018-03-30T19:48:13.062Z,53.60
2018-03-30T19:50:40.174Z,46.05
2018-03-30T19:53:07.276Z,53.03
2018-03-30T19:55:35.144Z,50.83
2018-03-30T19:58:03.008Z,49.65
2018-03-30T20:00:30.879Z,54.97
2018-03-30T20:02:58.740Z,47.28
2018-03-30T20:05:25.848Z,49.97
2018-03-30T20:07:52.955Z,58.17
2018-03-30T20:10:20.825Z,48.97
2018-03-30T20:12:48.700Z,47.35
2018-03-30T20:15:16.606Z,52.65
2018-03-30T20:17:43.708Z,53.78
2018-03-30T20:20:10.820Z,48.92
2018-03-30T20:22:37.922Z,46.03
2018-03-30T20:25:05.030Z,54.42
2018-03-30T20:27:32.126Z,55.38
2018-03-30T20:29:59.270Z,50.78
2018-03-30T20:32:26.373Z,43.63
2018-03-30T20:34:53.500Z,44.22
2018-03-30T20:37:21.362Z,39.05
2018-03-30T20:39:48.464Z,43.03
2018-03-30T20:42:15.563Z,44.13
2018-03-30T20:44:42.663Z,42.95
2018-03-30T20:47:09.763Z,44.35
2018-03-30T20:49:36.879Z,41.37
2018-03-30T20:52:03.983Z,45.47
2018-03-30T20:54:31.135Z,43.20
2018-03-30T20:56:58.237Z,40.30
2018-03-30T20:59:25.334Z,44.42
2018-03-30T21:01:52.438Z,43.17
2018-03-30T21:04:19.543Z,56.67
2018-03-30T21:06:46.656Z,56.92
2018-03-30T21:09:13.755Z,63.13
2018-03-30T21:11:40.904Z,59.63
2018-03-30T21:14:08.006Z,59.78
2018-03-30T21:16:35.115Z,58.70
2018-03-30T21:19:02.215Z,55.10
2018-03-30T21:21:29.312Z,57.58
2018-03-30T21:23:56.418Z,60.05
2018-03-30T21:26:23.520Z,58.30
2018-03-30T21:28:50.644Z,56.00
2018-03-30T21:31:17.747Z,66.10
2018-03-30T21:33:44.860Z,60.05
2018-03-30T21:36:11.968Z,52.72
2018-03-30T21:38:39.836Z,58.92
2018-03-30T21:41:07.719Z,49.45
2018-03-30T21:43:34.819Z,50.25
2018-03-30T21:46:01.923Z,51.15
2018-03-30T21:48:29.788Z,48.53
2018-03-30T21:50:57.659Z,44.75
2018-03-30T21:53:25.563Z,46.17
2018-03-30T21:55:53.496Z,46.88
2018-03-30T21:58:21.370Z,43.15
2018-03-30T22:00:49.244Z,42.35
2018-03-30T22:03:17.107Z,45.80
2018-03-30T22:05:44.211Z,41.80
2018-03-30T22:08:11.311Z,41.50
2018-03-30T22:10:39.190Z,38.33
2018-03-30T22:13:07.059Z,45.97
2018-03-30T22:15:34.934Z,44.20
2018-03-30T22:18:02.803Z,42.33
2018-03-30T22:20:30.710Z,44.13
2018-03-30T22:22:57.825Z,50.22
2018-03-30T22:25:24.925Z,45.63
2018-03-30T22:27:52.078Z,42.65
2018-03-30T22:30:19.183Z,45.40
2018-03-30T22:32:46.330Z,47.40
2018-03-30T22:35:13.441Z,43.30
2018-03-30T22:37:40.582Z,49.20
2018-03-30T22:40:07.689Z,54.25
2018-03-30T22:42:34.863Z,51.00
2018-03-30T22:45:02.800Z,45.47
2018-03-30T22:47:29.907Z,52.38
2018-03-30T22:49:57.022Z,59.90
2018-03-30T22:52:24.174Z,57.45
2018-03-30T22:54:51.279Z,52.38
2018-03-30T22:57:18.391Z,49.13
2018-03-30T22:59:45.500Z,55.33
2018-03-30T23:02:12.624Z,54.35
2018-03-30T23:04:40.490Z,61.50
2018-03-30T23:07:08.379Z,64.80
2018-03-30T23:09:35.483Z,53.22
2018-03-30T23:12:02.588Z,63.55
2018-03-30T23:14:29.712Z,61.50
2018-03-30T23:16:56.824Z,62.83
2018-03-30T23:19:23.999Z,62.03
2018-03-30T23:21:51.107Z,50.30
2018-03-30T23:24:18.215Z,57.05
2018-03-30T23:26:45.323Z,53.58
2018-03-30T23:29:12.429Z,48.17
2018-03-30T23:31:39.540Z,54.15
2018-03-30T23:34:06.655Z,54.53
2018-03-30T23:36:34.620Z,54.97
2018-03-30T23:39:01.736Z,58.55
2018-03-30T23:41:28.875Z,63.38
2018-03-30T23:43:56.787Z,54.90
2018-03-30T23:46:23.883Z,55.00
2018-03-30T23:48:51.028Z,56.10
2018-03-30T23:51:18.909Z,59.58
2018-03-30T23:53:46.009Z,59.28
2018-03-30T23:56:13.130Z,52.60
2018-03-30T23:58:40.240Z,53.72
